sensor_id;sensor_type;location;lat;lon;timestamp;temperature;humidity
48575;DHT22;34352;51.084;3.712;2023-07-29T00:04:55;18.30;59.70
48575;DHT22;34352;51.084;3.712;2023-07-29T00:18:16;18.30;60.70
48575;DHT22;34352;51.084;3.712;2023-07-29T00:21:12;18.00;57.70
48575;DHT22;34352;51.084;3.712;2023-07-29T00:27:04;18.10;62.30
48575;DHT22;34352;51.084;3.712;2023-07-29T00:35:11;18.10;62.00
48575;DHT22;34352;51.084;3.712;2023-07-29T00:38:01;17.70;60.30
48575;DHT22;34352;51.084;3.712;2023-07-29T00:40:43;18.30;61.60
48575;DHT22;34352;51.084;3.712;2023-07-29T02:20:49;17.60;66.30
48575;DHT22;34352;51.084;3.712;2023-07-29T04:21:54;17.30;64.70
48575;DHT22;34352;51.084;3.712;2023-07-29T05:00:35;17.30;66.80
48575;DHT22;34352;51.084;3.712;2023-07-29T08:17:55;25.90;99.90
48575;DHT22;34352;51.084;3.712;2023-07-29T08:20:21;27.10;99.90
48575;DHT22;34352;51.084;3.712;2023-07-29T08:22:52;27.10;99.90
48575;DHT22;34352;51.084;3.712;2023-07-29T08:25:25;26.90;99.90
48575;DHT22;34352;51.084;3.712;2023-07-29T08:27:54;26.90;99.90
48575;DHT22;34352;51.084;3.712;2023-07-29T08:30:21;27.40;99.90
48575;DHT22;34352;51.084;3.712;2023-07-29T08:32:46;26.90;99.90
48575;DHT22;34352;51.084;3.712;2023-07-29T08:35:12;26.80;99.90
48575;DHT22;34352;51.084;3.712;2023-07-29T08:37:40;26.90;99.90
48575;DHT22;34352;51.084;3.712;2023-07-29T08:40:08;26.90;99.90
48575;DHT22;34352;51.084;3.712;2023-07-29T08:42:45;26.40;99.90
48575;DHT22;34352;51.084;3.712;2023-07-29T08:45:19;26.40;99.90
48575;DHT22;34352;51.084;3.712;2023-07-29T08:47:54;26.50;99.90
48575;DHT22;34352;51.084;3.712;2023-07-29T08:50:31;26.60;99.90
48575;DHT22;34352;51.084;3.712;2023-07-29T08:52:59;26.10;99.90
48575;DHT22;34352;51.084;3.712;2023-07-29T08:55:32;25.50;99.90
48575;DHT22;34352;51.084;3.712;2023-07-29T09:24:16;22.40;1.00
48575;DHT22;34352;51.084;3.712;2023-07-29T09:50:41;21.50;3.80
48575;DHT22;34352;51.084;3.712;2023-07-29T09:53:14;21.40;16.60
48575;DHT22;34352;51.084;3.712;2023-07-29T09:55:53;21.60;21.90
48575;DHT22;34352;51.084;3.712;2023-07-29T09:58:28;21.90;16.20
48575;DHT22;34352;51.084;3.712;2023-07-29T10:00:55;21.00;12.70
48575;DHT22;34352;51.084;3.712;2023-07-29T10:03:30;22.60;1.00
48575;DHT22;34352;51.084;3.712;2023-07-29T10:06:03;23.10;1.00
48575;DHT22;34352;51.084;3.712;2023-07-29T10:08:55;23.70;1.00
48575;DHT22;34352;51.084;3.712;2023-07-29T10:11:29;23.80;1.00
48575;DHT22;34352;51.084;3.712;2023-07-29T10:16:36;23.50;1.00
48575;DHT22;34352;51.084;3.712;2023-07-29T10:19:04;23.40;1.00
48575;DHT22;34352;51.084;3.712;2023-07-29T10:21:38;24.40;1.00
48575;DHT22;34352;51.084;3.712;2023-07-29T10:24:06;25.10;1.00
48575;DHT22;34352;51.084;3.712;2023-07-29T10:26:34;24.90;1.00
48575;DHT22;34352;51.084;3.712;2023-07-29T10:32:28;24.30;1.00
48575;DHT22;34352;51.084;3.712;2023-07-29T10:37:47;23.00;1.00
48575;DHT22;34352;51.084;3.712;2023-07-29T10:46:30;20.90;40.10
48575;DHT22;34352;51.084;3.712;2023-07-29T11:38:35;24.10;1.00
48575;DHT22;34352;51.084;3.712;2023-07-29T11:41:09;24.90;1.00
48575;DHT22;34352;51.084;3.712;2023-07-29T11:43:43;25.90;1.00
48575;DHT22;34352;51.084;3.712;2023-07-29T11:46:34;27.10;1.00
48575;DHT22;34352;51.084;3.712;2023-07-29T11:49:00;28.10;99.90
48575;DHT22;34352;51.084;3.712;2023-07-29T11:51:38;28.70;99.90
48575;DHT22;34352;51.084;3.712;2023-07-29T11:54:06;29.00;99.90
48575;DHT22;34352;51.084;3.712;2023-07-29T11:56:32;28.90;99.90
48575;DHT22;34352;51.084;3.712;2023-07-29T11:59:01;28.50;99.90
48575;DHT22;34352;51.084;3.712;2023-07-29T12:01:42;27.60;99.90
48575;DHT22;34352;51.084;3.712;2023-07-29T12:04:36;27.50;99.90
48575;DHT22;34352;51.084;3.712;2023-07-29T12:07:03;28.00;99.90
48575;DHT22;34352;51.084;3.712;2023-07-29T12:09:29;28.30;99.90
48575;DHT22;34352;51.084;3.712;2023-07-29T12:12:07;28.60;99.90
48575;DHT22;34352;51.084;3.712;2023-07-29T12:14:36;28.60;99.90
48575;DHT22;34352;51.084;3.712;2023-07-29T12:17:04;28.60;99.90
48575;DHT22;34352;51.084;3.712;2023-07-29T12:19:34;28.80;99.90
48575;DHT22;34352;51.084;3.712;2023-07-29T12:22:04;28.40;99.90
48575;DHT22;34352;51.084;3.712;2023-07-29T12:24:35;28.00;99.90
48575;DHT22;34352;51.084;3.712;2023-07-29T12:27:14;27.80;99.90
48575;DHT22;34352;51.084;3.712;2023-07-29T12:30:04;27.60;99.90
48575;DHT22;34352;51.084;3.712;2023-07-29T12:39:04;26.60;99.90
48575;DHT22;34352;51.084;3.712;2023-07-29T12:41:33;26.30;99.90
48575;DHT22;34352;51.084;3.712;2023-07-29T12:44:01;27.10;99.90
48575;DHT22;34352;51.084;3.712;2023-07-29T12:46:42;27.90;99.90
48575;DHT22;34352;51.084;3.712;2023-07-29T12:49:24;28.70;99.90
48575;DHT22;34352;51.084;3.712;2023-07-29T12:51:50;28.50;99.90
48575;DHT22;34352;51.084;3.712;2023-07-29T12:54:15;28.00;99.90
48575;DHT22;34352;51.084;3.712;2023-07-29T12:56:42;27.50;99.90
48575;DHT22;34352;51.084;3.712;2023-07-29T12:59:12;26.80;99.90
48575;DHT22;34352;51.084;3.712;2023-07-29T13:01:42;26.70;99.90
48575;DHT22;34352;51.084;3.712;2023-07-29T13:04:10;26.50;99.90
48575;DHT22;34352;51.084;3.712;2023-07-29T13:06:40;26.40;99.90
48575;DHT22;34352;51.084;3.712;2023-07-29T13:09:30;26.10;99.90
48575;DHT22;34352;51.084;3.712;2023-07-29T13:12:05;25.80;99.90
48575;DHT22;34352;51.084;3.712;2023-07-29T13:14:43;25.60;99.90
48575;DHT22;34352;51.084;3.712;2023-07-29T13:17:12;25.10;99.90
48575;DHT22;34352;51.084;3.712;2023-07-29T13:23:16;24.70;99.90
48575;DHT22;34352;51.084;3.712;2023-07-29T13:29:10;25.30;99.90
48575;DHT22;34352;51.084;3.712;2023-07-29T13:31:46;24.30;99.90
48575;DHT22;34352;51.084;3.712;2023-07-29T13:34:17;23.90;99.90
48575;DHT22;34352;51.084;3.712;2023-07-29T13:36:47;22.90;1.00
48575;DHT22;34352;51.084;3.712;2023-07-29T13:39:14;21.90;1.00
48575;DHT22;34352;51.084;3.712;2023-07-29T14:09:12;22.80;36.30
48575;DHT22;34352;51.084;3.712;2023-07-29T14:11:38;23.30;10.90
48575;DHT22;34352;51.084;3.712;2023-07-29T14:14:04;23.70;1.00
48575;DHT22;34352;51.084;3.712;2023-07-29T14:16:31;23.70;1.00
48575;DHT22;34352;51.084;3.712;2023-07-29T14:18:56;23.90;1.00
48575;DHT22;34352;51.084;3.712;2023-07-29T14:25:02;24.30;1.00
48575;DHT22;34352;51.084;3.712;2023-07-29T14:27:53;23.70;1.00
48575;DHT22;34352;51.084;3.712;2023-07-29T14:30:19;23.50;1.00
48575;DHT22;34352;51.084;3.712;2023-07-29T14:32:52;23.40;1.00
48575;DHT22;34352;51.084;3.712;2023-07-29T14:35:25;23.50;1.00
48575;DHT22;34352;51.084;3.712;2023-07-29T14:37:52;23.40;1.00
48575;DHT22;34352;51.084;3.712;2023-07-29T14:40:17;23.70;1.00
48575;DHT22;34352;51.084;3.712;2023-07-29T14:42:45;23.80;1.00
48575;DHT22;34352;51.084;3.712;2023-07-29T14:47:46;23.70;1.00
48575;DHT22;34352;51.084;3.712;2023-07-29T14:56:10;23.70;1.00
48575;DHT22;34352;51.084;3.712;2023-07-29T14:58:39;23.70;1.00
48575;DHT22;34352;51.084;3.712;2023-07-29T15:03:48;23.50;1.00
48575;DHT22;34352;51.084;3.712;2023-07-29T15:18:10;23.30;1.00
48575;DHT22;34352;51.084;3.712;2023-07-29T15:23:42;23.30;1.00
48575;DHT22;34352;51.084;3.712;2023-07-29T16:10:39;23.00;99.90
48575;DHT22;34352;51.084;3.712;2023-07-29T17:18:14;22.70;99.90
48575;DHT22;34352;51.084;3.712;2023-07-29T17:33:51;22.40;99.90
48575;DHT22;34352;51.084;3.712;2023-07-29T17:36:17;22.30;99.90
48575;DHT22;34352;51.084;3.712;2023-07-29T17:38:46;22.30;99.90
48575;DHT22;34352;51.084;3.712;2023-07-29T17:41:13;22.40;99.90
48575;DHT22;34352;51.084;3.712;2023-07-29T17:44:09;22.30;99.90
48575;DHT22;34352;51.084;3.712;2023-07-29T17:46:35;22.10;99.90
48575;DHT22;34352;51.084;3.712;2023-07-29T17:49:17;22.10;99.90
48575;DHT22;34352;51.084;3.712;2023-07-29T17:51:58;22.10;99.90
48575;DHT22;34352;51.084;3.712;2023-07-29T17:54:30;21.00;99.90
48575;DHT22;34352;51.084;3.712;2023-07-29T17:56:59;21.60;99.90
48575;DHT22;34352;51.084;3.712;2023-07-29T17:59:33;21.80;99.90
48575;DHT22;34352;51.084;3.712;2023-07-29T18:02:00;21.80;99.90
48575;DHT22;34352;51.084;3.712;2023-07-29T18:04:33;21.10;99.90
48575;DHT22;34352;51.084;3.712;2023-07-29T18:07:01;21.70;99.90
48575;DHT22;34352;51.084;3.712;2023-07-29T18:09:26;21.80;99.90
48575;DHT22;34352;51.084;3.712;2023-07-29T18:11:58;21.80;99.90
48575;DHT22;34352;51.084;3.712;2023-07-29T18:14:28;21.60;99.90
48575;DHT22;34352;51.084;3.712;2023-07-29T18:16:54;21.60;99.90
48575;DHT22;34352;51.084;3.712;2023-07-29T18:19:24;21.40;99.90
48575;DHT22;34352;51.084;3.712;2023-07-29T18:21:55;21.30;99.90
48575;DHT22;34352;51.084;3.712;2023-07-29T18:24:20;21.30;99.90
48575;DHT22;34352;51.084;3.712;2023-07-29T18:26:47;21.30;99.90
48575;DHT22;34352;51.084;3.712;2023-07-29T18:29:13;21.30;99.90
48575;DHT22;34352;51.084;3.712;2023-07-29T18:31:41;21.20;99.90
48575;DHT22;34352;51.084;3.712;2023-07-29T18:34:06;21.30;99.90
48575;DHT22;34352;51.084;3.712;2023-07-29T18:36:33;21.40;99.90
48575;DHT22;34352;51.084;3.712;2023-07-29T18:41:40;21.20;99.90
48575;DHT22;34352;51.084;3.712;2023-07-29T18:44:07;20.40;99.90
48575;DHT22;34352;51.084;3.712;2023-07-29T19:19:15;20.40;99.90
48575;DHT22;34352;51.084;3.712;2023-07-29T20:52:23;18.40;1.00
48575;DHT22;34352;51.084;3.712;2023-07-29T21:30:15;17.80;1.00
48575;DHT22;34352;51.084;3.712;2023-07-29T21:32:47;17.60;1.00
48575;DHT22;34352;51.084;3.712;2023-07-29T21:35:14;17.60;1.00
48575;DHT22;34352;51.084;3.712;2023-07-29T21:37:53;17.70;1.00
48575;DHT22;34352;51.084;3.712;2023-07-29T21:40:20;17.60;1.00
48575;DHT22;34352;51.084;3.712;2023-07-29T21:42:47;17.50;1.00
48575;DHT22;34352;51.084;3.712;2023-07-29T23:16:23;16.50;44.20
48575;DHT22;34352;51.084;3.712;2023-07-29T23:39:59;16.30;49.20
